CPR7 weather

Wingham / Richard W. LeVan Airport
Wingham, Ontario, Canada

Public forecast

Using degrees Celsius for public forecast. Weather courtesy of forecast.io.

Closest aviation weather report (METAR) to Wingham / Richard W. LeVan Airport

Closest report is Waterloo Airport, 46.8 nm (86.7 km) ESE. Retrieved 2019/10/18 13:00 UTC (7 minutes ago):

CYKF 181300Z AUTO 31010KT 9SM CLR 03/02 A3001 RMK SLP173

Closest aviation forecast (TAF) to Wingham / Richard W. LeVan Airport

Closest forecast is Waterloo Airport, 46.8 nm (86.7 km) ESE. Retrieved 2019/10/18 14:39 UTC (0 seconds ago):

TAF CYKF 181338Z 1814/1902 31010KT P6SM FEW030 BECMG 1814/1816 33012KT BECMG 1821/1823 29007KT RMK FCST BASED ON AUTO OBS NXT FCST BY 182000Z